Time;durP1;ratioP1;P1;durP2;ratioP2;P2;SDS_P1;SDS_P2;PMS_P1;PMS_P2;Temp;Humidity;BMP_temperature;BMP_pressure;BME280_temperature;BME280_humidity;BME280_pressure;Samples;Min_cycle;Max_cycle;Signal;HPM_P1;HPM_P2
2022/08/29 00:00:40;;;;;;;19.25;17.25;;;;;;;14.58;99.83105;95557.98;;;;
2022/08/29 00:01:40;;;;;;;19.25;17.25;;;;;;;14.58;99.83105;95557.98;;;;
2022/08/29 00:02:41;;;;;;;19.25;17.25;;;;;;;14.58;99.83105;95557.98;;;;
2022/08/29 00:03:41;;;;;;;19.75;17.6;;;;;;;14.54;100;95551.48;;;;
2022/08/29 00:04:42;;;;;;;19.75;17.6;;;;;;;14.54;100;95551.48;;;;
2022/08/29 00:05:42;;;;;;;19.75;17.6;;;;;;;14.54;100;95551.48;;;;
2022/08/29 00:06:43;;;;;;;19.75;17.6;;;;;;;14.54;100;95551.48;;;;
2022/08/29 00:07:43;;;;;;;19.75;17.6;;;;;;;14.54;100;95551.48;;;;
2022/08/29 00:08:44;;;;;;;19.75;17.6;;;;;;;14.54;100;95551.48;;;;
2022/08/29 00:09:44;;;;;;;19.75;17.6;;;;;;;14.54;100;95551.48;;;;
2022/08/29 00:10:45;;;;;;;19.75;17.6;;;;;;;14.54;100;95551.48;;;;
2022/08/29 00:11:45;;;;;;;19.75;17.6;;;;;;;14.54;100;95551.48;;;;
2022/08/29 00:12:46;;;;;;;19.75;17.6;;;;;;;14.54;100;95551.48;;;;
2022/08/29 00:13:47;;;;;;;19.75;17.6;;;;;;;14.54;100;95551.48;;;;
2022/08/29 00:14:48;;;;;;;20.25;16.7;;;;;;;14.48;100;95556.5;;;;
2022/08/29 00:15:48;;;;;;;20.25;16.7;;;;;;;14.48;100;95556.5;;;;
2022/08/29 00:16:49;;;;;;;20.25;16.7;;;;;;;14.48;100;95556.5;;;;
2022/08/29 00:17:50;;;;;;;20.25;16.7;;;;;;;14.48;100;95556.5;;;;
2022/08/29 00:18:51;;;;;;;20.25;16.7;;;;;;;14.48;100;95556.5;;;;
2022/08/29 00:19:51;;;;;;;20.25;16.7;;;;;;;14.48;100;95556.5;;;;
2022/08/29 00:20:52;;;;;;;20.25;16.7;;;;;;;14.48;100;95556.5;;;;
2022/08/29 00:21:52;;;;;;;20.25;16.7;;;;;;;14.48;100;95556.5;;;;
2022/08/29 00:22:53;;;;;;;20.25;16.7;;;;;;;14.48;100;95556.5;;;;
2022/08/29 00:23:54;;;;;;;20.25;16.7;;;;;;;14.48;100;95556.5;;;;
2022/08/29 00:24:54;;;;;;;19.65;15.5;;;;;;;14.48;100;95558.23;;;;
2022/08/29 00:25:55;;;;;;;19.65;15.5;;;;;;;14.48;100;95558.23;;;;
2022/08/29 00:26:59;;;;;;;19.65;15.5;;;;;;;14.48;100;95558.23;;;;
2022/08/29 00:27:59;;;;;;;19.65;15.5;;;;;;;14.48;100;95558.23;;;;
2022/08/29 00:29:00;;;;;;;19.65;15.5;;;;;;;14.48;100;95558.23;;;;
2022/08/29 00:30:01;;;;;;;19.65;15.5;;;;;;;14.48;100;95558.23;;;;
2022/08/29 00:31:03;;;;;;;19.65;15.5;;;;;;;14.48;100;95558.23;;;;
2022/08/29 00:32:03;;;;;;;19.65;15.5;;;;;;;14.48;100;95558.23;;;;
2022/08/29 00:33:04;;;;;;;19.65;15.5;;;;;;;14.48;100;95558.23;;;;
2022/08/29 00:34:05;;;;;;;19.65;15.5;;;;;;;14.48;100;95558.23;;;;
2022/08/29 00:35:06;;;;;;;19.65;15.5;;;;;;;14.48;100;95558.23;;;;
2022/08/29 00:36:10;;;;;;;18.4;15.55;;;;;;;14.48;100;95564.37;;;;
2022/08/29 00:37:10;;;;;;;18.4;15.55;;;;;;;14.48;100;95564.37;;;;
2022/08/29 00:38:11;;;;;;;18.4;15.55;;;;;;;14.48;100;95564.37;;;;
2022/08/29 00:39:14;;;;;;;18.4;15.55;;;;;;;14.48;100;95564.37;;;;
2022/08/29 00:40:15;;;;;;;18.4;15.55;;;;;;;14.48;100;95564.37;;;;
2022/08/29 00:41:18;;;;;;;18.4;15.55;;;;;;;14.48;100;95564.37;;;;
2022/08/29 00:42:19;;;;;;;18.4;15.55;;;;;;;14.48;100;95564.37;;;;
2022/08/29 00:43:20;;;;;;;18.4;15.55;;;;;;;14.48;100;95564.37;;;;
2022/08/29 00:44:23;;;;;;;18.4;15.55;;;;;;;14.48;100;95564.37;;;;
2022/08/29 00:45:23;;;;;;;18.4;15.55;;;;;;;14.48;100;95564.37;;;;
2022/08/29 00:46:24;;;;;;;16.35;13.1;;;;;;;14.57;100;95566.19;;;;
2022/08/29 00:48:04;;;;;;;16.35;13.1;;;;;;;14.57;100;95566.19;;;;
2022/08/29 00:49:09;;;;;;;16.35;13.1;;;;;;;14.57;100;95566.19;;;;
2022/08/29 00:50:18;;;;;;;16.35;13.1;;;;;;;14.57;100;95566.19;;;;
2022/08/29 00:51:25;;;;;;;16.35;13.1;;;;;;;14.57;100;95566.19;;;;
2022/08/29 00:52:26;;;;;;;16.35;13.1;;;;;;;14.57;100;95566.19;;;;
2022/08/29 00:53:31;;;;;;;16.35;13.1;;;;;;;14.57;100;95566.19;;;;
2022/08/29 00:54:36;;;;;;;16.35;13.1;;;;;;;14.57;100;95566.19;;;;
2022/08/29 00:55:38;;;;;;;16.35;13.1;;;;;;;14.57;100;95566.19;;;;
2022/08/29 00:56:40;;;;;;;13.7;12.35;;;;;;;14.49;100;95557.59;;;;
2022/08/29 00:57:43;;;;;;;13.7;12.35;;;;;;;14.49;100;95557.59;;;;
2022/08/29 00:58:47;;;;;;;13.7;12.35;;;;;;;14.49;100;95557.59;;;;
2022/08/29 00:59:52;;;;;;;13.7;12.35;;;;;;;14.49;100;95557.59;;;;
2022/08/29 01:00:52;;;;;;;13.7;12.35;;;;;;;14.49;100;95557.59;;;;
2022/08/29 01:01:54;;;;;;;13.7;12.35;;;;;;;14.49;100;95557.59;;;;
2022/08/29 01:02:54;;;;;;;13.7;12.35;;;;;;;14.49;100;95557.59;;;;
2022/08/29 01:03:55;;;;;;;13.7;12.35;;;;;;;14.49;100;95557.59;;;;
2022/08/29 01:04:56;;;;;;;13.7;12.35;;;;;;;14.49;100;95557.59;;;;
2022/08/29 01:05:57;;;;;;;13.7;12.35;;;;;;;14.49;100;95557.59;;;;
2022/08/29 01:06:57;;;;;;;13.7;12.35;;;;;;;14.49;100;95557.59;;;;
2022/08/29 01:07:58;;;;;;;13.95;12.55;;;;;;;14.45;100;95549.39;;;;
2022/08/29 01:08:59;;;;;;;13.95;12.55;;;;;;;14.45;100;95549.39;;;;
2022/08/29 01:10:00;;;;;;;13.95;12.55;;;;;;;14.45;100;95549.39;;;;
2022/08/29 01:16:12;;;;;;;13.95;12.55;;;;;;;14.45;100;95549.39;;;;
2022/08/29 01:17:14;;;;;;;13.95;12.55;;;;;;;14.45;100;95549.39;;;;
2022/08/29 01:18:20;;;;;;;13.8;11.6;;;;;;;14.35;100;95548.72;;;;
2022/08/29 01:19:23;;;;;;;13.8;11.6;;;;;;;14.35;100;95548.72;;;;
2022/08/29 01:20:39;;;;;;;13.8;11.6;;;;;;;14.35;100;95548.72;;;;
2022/08/29 01:21:50;;;;;;;13.8;11.6;;;;;;;14.35;100;95548.72;;;;
2022/08/29 01:23:02;;;;;;;13.8;11.6;;;;;;;14.35;100;95548.72;;;;
2022/08/29 01:24:12;;;;;;;13.8;11.6;;;;;;;14.35;100;95548.72;;;;
2022/08/29 01:25:25;;;;;;;13.8;11.6;;;;;;;14.35;100;95548.72;;;;
2022/08/29 01:26:29;;;;;;;13.8;11.6;;;;;;;14.35;100;95548.72;;;;
2022/08/29 01:27:30;;;;;;;13.8;11.6;;;;;;;14.35;100;95548.72;;;;
2022/08/29 01:28:36;;;;;;;13.25;11.5;;;;;;;14.32;100;95551.84;;;;
2022/08/29 01:29:40;;;;;;;13.25;11.5;;;;;;;14.32;100;95551.84;;;;
2022/08/29 01:30:41;;;;;;;13.25;11.5;;;;;;;14.32;100;95551.84;;;;
2022/08/29 01:31:57;;;;;;;13.25;11.5;;;;;;;14.32;100;95551.84;;;;
2022/08/29 01:32:59;;;;;;;13.25;11.5;;;;;;;14.32;100;95551.84;;;;
2022/08/29 01:34:00;;;;;;;13.25;11.5;;;;;;;14.32;100;95551.84;;;;
2022/08/29 01:35:01;;;;;;;13.25;11.5;;;;;;;14.32;100;95551.84;;;;
2022/08/29 01:36:03;;;;;;;13.25;11.5;;;;;;;14.32;100;95551.84;;;;
2022/08/29 01:37:05;;;;;;;13.25;11.5;;;;;;;14.32;100;95551.84;;;;
2022/08/29 01:38:09;;;;;;;13.25;11.5;;;;;;;14.32;100;95551.84;;;;
2022/08/29 01:39:09;;;;;;;13.25;11.5;;;;;;;14.32;100;95551.84;;;;
2022/08/29 01:40:10;;;;;;;12.8;11.1;;;;;;;14.24;100;95550.81;;;;
2022/08/29 01:41:12;;;;;;;12.8;11.1;;;;;;;14.24;100;95550.81;;;;
2022/08/29 01:42:13;;;;;;;12.8;11.1;;;;;;;14.24;100;95550.81;;;;
2022/08/29 01:43:16;;;;;;;12.8;11.1;;;;;;;14.24;100;95550.81;;;;
2022/08/29 01:44:17;;;;;;;12.8;11.1;;;;;;;14.24;100;95550.81;;;;
2022/08/29 01:45:20;;;;;;;12.8;11.1;;;;;;;14.24;100;95550.81;;;;
2022/08/29 01:46:21;;;;;;;12.8;11.1;;;;;;;14.24;100;95550.81;;;;
2022/08/29 01:47:26;;;;;;;12.8;11.1;;;;;;;14.24;100;95550.81;;;;
2022/08/29 01:48:30;;;;;;;12.8;11.1;;;;;;;14.24;100;95550.81;;;;
2022/08/29 01:49:31;;;;;;;12.8;11.1;;;;;;;14.24;100;95550.81;;;;
2022/08/29 01:50:35;;;;;;;13.75;9.75;;;;;;;14.2;100;95550.86;;;;
2022/08/29 01:51:36;;;;;;;13.75;9.75;;;;;;;14.2;100;95550.86;;;;
2022/08/29 01:52:38;;;;;;;13.75;9.75;;;;;;;14.2;100;95550.86;;;;
2022/08/29 01:53:40;;;;;;;13.75;9.75;;;;;;;14.2;100;95550.86;;;;
2022/08/29 01:54:40;;;;;;;13.75;9.75;;;;;;;14.2;100;95550.86;;;;
2022/08/29 01:55:43;;;;;;;13.75;9.75;;;;;;;14.2;100;95550.86;;;;
2022/08/29 01:56:43;;;;;;;13.75;9.75;;;;;;;14.2;100;95550.86;;;;
2022/08/29 01:57:46;;;;;;;13.75;9.75;;;;;;;14.2;100;95550.86;;;;
2022/08/29 01:58:47;;;;;;;13.75;9.75;;;;;;;14.2;100;95550.86;;;;
2022/08/29 01:59:49;;;;;;;13.75;9.75;;;;;;;14.2;100;95550.86;;;;
2022/08/29 02:00:50;;;;;;;11.55;9.5;;;;;;;14.11;100;95545.68;;;;
2022/08/29 02:01:51;;;;;;;11.55;9.5;;;;;;;14.11;100;95545.68;;;;
2022/08/29 02:02:55;;;;;;;11.55;9.5;;;;;;;14.11;100;95545.68;;;;
2022/08/29 02:03:57;;;;;;;11.55;9.5;;;;;;;14.11;100;95545.68;;;;
2022/08/29 02:04:58;;;;;;;11.55;9.5;;;;;;;14.11;100;95545.68;;;;
2022/08/29 02:05:58;;;;;;;11.55;9.5;;;;;;;14.11;100;95545.68;;;;
2022/08/29 02:06:59;;;;;;;11.55;9.5;;;;;;;14.11;100;95545.68;;;;
2022/08/29 02:08:00;;;;;;;11.55;9.5;;;;;;;14.11;100;95545.68;;;;
2022/08/29 02:09:01;;;;;;;11.55;9.5;;;;;;;14.11;100;95545.68;;;;
2022/08/29 02:10:02;;;;;;;11.55;9.5;;;;;;;14.11;100;95545.68;;;;
2022/08/29 02:11:05;;;;;;;11.55;9.5;;;;;;;14.11;100;95545.68;;;;
2022/08/29 02:12:06;;;;;;;10.4;9.400001;;;;;;;14.09;100;95547.79;;;;
2022/08/29 02:13:06;;;;;;;10.4;9.400001;;;;;;;14.09;100;95547.79;;;;
2022/08/29 02:14:07;;;;;;;10.4;9.400001;;;;;;;14.09;100;95547.79;;;;
2022/08/29 02:15:08;;;;;;;10.4;9.400001;;;;;;;14.09;100;95547.79;;;;
2022/08/29 02:16:10;;;;;;;10.4;9.400001;;;;;;;14.09;100;95547.79;;;;
2022/08/29 02:17:11;;;;;;;10.4;9.400001;;;;;;;14.09;100;95547.79;;;;
2022/08/29 02:18:11;;;;;;;10.4;9.400001;;;;;;;14.09;100;95547.79;;;;
2022/08/29 02:19:12;;;;;;;10.4;9.400001;;;;;;;14.09;100;95547.79;;;;
2022/08/29 02:20:13;;;;;;;10.4;9.400001;;;;;;;14.09;100;95547.79;;;;
2022/08/29 02:21:13;;;;;;;10.4;9.400001;;;;;;;14.09;100;95547.79;;;;
2022/08/29 02:22:17;;;;;;;10.1;8.799999;;;;;;;13.99;100;95547.93;;;;
2022/08/29 02:23:17;;;;;;;10.1;8.799999;;;;;;;13.99;100;95547.93;;;;
2022/08/29 02:24:18;;;;;;;10.1;8.799999;;;;;;;13.99;100;95547.93;;;;
2022/08/29 02:25:52;;;;;;;10.1;8.799999;;;;;;;13.99;100;95547.93;;;;
2022/08/29 02:26:52;;;;;;;10.1;8.799999;;;;;;;13.99;100;95547.93;;;;
2022/08/29 02:27:55;;;;;;;10.1;8.799999;;;;;;;13.99;100;95547.93;;;;
2022/08/29 02:28:56;;;;;;;10.1;8.799999;;;;;;;13.99;100;95547.93;;;;
2022/08/29 02:29:56;;;;;;;10.1;8.799999;;;;;;;13.99;100;95547.93;;;;
2022/08/29 02:30:57;;;;;;;10.1;8.799999;;;;;;;13.99;100;95547.93;;;;
2022/08/29 02:31:58;;;;;;;10.1;8.799999;;;;;;;13.99;100;95547.93;;;;
2022/08/29 02:32:59;;;;;;;10.15;9.1;;;;;;;13.96;100;95541.2;;;;
2022/08/29 02:33:59;;;;;;;10.15;9.1;;;;;;;13.96;100;95541.2;;;;
2022/08/29 02:35:00;;;;;;;10.15;9.1;;;;;;;13.96;100;95541.2;;;;
2022/08/29 02:36:00;;;;;;;10.15;9.1;;;;;;;13.96;100;95541.2;;;;
2022/08/29 02:37:02;;;;;;;10.15;9.1;;;;;;;13.96;100;95541.2;;;;
2022/08/29 02:38:04;;;;;;;10.15;9.1;;;;;;;13.96;100;95541.2;;;;
2022/08/29 02:39:05;;;;;;;10.15;9.1;;;;;;;13.96;100;95541.2;;;;
2022/08/29 02:40:05;;;;;;;10.15;9.1;;;;;;;13.96;100;95541.2;;;;
2022/08/29 02:41:07;;;;;;;10.15;9.1;;;;;;;13.96;100;95541.2;;;;
2022/08/29 02:42:08;;;;;;;10.15;9.1;;;;;;;13.96;100;95541.2;;;;
2022/08/29 02:43:08;;;;;;;10.15;9.1;;;;;;;13.96;100;95541.2;;;;
2022/08/29 02:44:09;;;;;;;9.650002;8.650002;;;;;;;13.87;100;95544.31;;;;
2022/08/29 02:45:10;;;;;;;9.650002;8.650002;;;;;;;13.87;100;95544.31;;;;
2022/08/29 02:46:11;;;;;;;9.650002;8.650002;;;;;;;13.87;100;95544.31;;;;
2022/08/29 02:47:13;;;;;;;9.650002;8.650002;;;;;;;13.87;100;95544.31;;;;
2022/08/29 02:48:14;;;;;;;9.650002;8.650002;;;;;;;13.87;100;95544.31;;;;
2022/08/29 02:49:15;;;;;;;9.650002;8.650002;;;;;;;13.87;100;95544.31;;;;
2022/08/29 02:50:16;;;;;;;9.650002;8.650002;;;;;;;13.87;100;95544.31;;;;
2022/08/29 02:51:17;;;;;;;9.650002;8.650002;;;;;;;13.87;100;95544.31;;;;
2022/08/29 02:52:19;;;;;;;9.650002;8.650002;;;;;;;13.87;100;95544.31;;;;
2022/08/29 02:53:20;;;;;;;9.650002;8.650002;;;;;;;13.87;100;95544.31;;;;
2022/08/29 02:54:23;;;;;;;9.550001;8.550001;;;;;;;13.85;100;95538.9;;;;
2022/08/29 02:55:24;;;;;;;9.550001;8.550001;;;;;;;13.85;100;95538.9;;;;
2022/08/29 02:56:25;;;;;;;9.550001;8.550001;;;;;;;13.85;100;95538.9;;;;
2022/08/29 02:57:26;;;;;;;9.550001;8.550001;;;;;;;13.85;100;95538.9;;;;
2022/08/29 02:58:27;;;;;;;9.550001;8.550001;;;;;;;13.85;100;95538.9;;;;
2022/08/29 02:59:27;;;;;;;9.550001;8.550001;;;;;;;13.85;100;95538.9;;;;
2022/08/29 03:00:28;;;;;;;9.550001;8.550001;;;;;;;13.85;100;95538.9;;;;
2022/08/29 03:01:29;;;;;;;9.550001;8.550001;;;;;;;13.85;100;95538.9;;;;
2022/08/29 03:02:30;;;;;;;9.550001;8.550001;;;;;;;13.85;100;95538.9;;;;
2022/08/29 03:03:30;;;;;;;9.550001;8.550001;;;;;;;13.85;100;95538.9;;;;
2022/08/29 03:04:31;;;;;;;9.550001;8.550001;;;;;;;13.85;100;95538.9;;;;
2022/08/29 03:05:33;;;;;;;10.05;8.75;;;;;;;13.8;100;95541.02;;;;
2022/08/29 03:06:35;;;;;;;10.05;8.75;;;;;;;13.8;100;95541.02;;;;
2022/08/29 03:07:36;;;;;;;10.05;8.75;;;;;;;13.8;100;95541.02;;;;
2022/08/29 03:08:36;;;;;;;10.05;8.75;;;;;;;13.8;100;95541.02;;;;
2022/08/29 03:09:37;;;;;;;10.05;8.75;;;;;;;13.8;100;95541.02;;;;
2022/08/29 03:10:38;;;;;;;10.05;8.75;;;;;;;13.8;100;95541.02;;;;
2022/08/29 03:11:40;;;;;;;10.05;8.75;;;;;;;13.8;100;95541.02;;;;
2022/08/29 03:12:40;;;;;;;10.05;8.75;;;;;;;13.8;100;95541.02;;;;
2022/08/29 03:13:41;;;;;;;10.05;8.75;;;;;;;13.8;100;95541.02;;;;
2022/08/29 03:14:42;;;;;;;10.05;8.75;;;;;;;13.8;100;95541.02;;;;
2022/08/29 03:15:42;;;;;;;11.6;9.25;;;;;;;13.82;100;95550.9;;;;
2022/08/29 03:16:43;;;;;;;11.6;9.25;;;;;;;13.82;100;95550.9;;;;
2022/08/29 03:17:44;;;;;;;11.6;9.25;;;;;;;13.82;100;95550.9;;;;
2022/08/29 03:18:45;;;;;;;11.6;9.25;;;;;;;13.82;100;95550.9;;;;
2022/08/29 03:19:45;;;;;;;11.6;9.25;;;;;;;13.82;100;95550.9;;;;
2022/08/29 03:20:46;;;;;;;11.6;9.25;;;;;;;13.82;100;95550.9;;;;
2022/08/29 03:21:47;;;;;;;11.6;9.25;;;;;;;13.82;100;95550.9;;;;
2022/08/29 03:22:48;;;;;;;11.6;9.25;;;;;;;13.82;100;95550.9;;;;
2022/08/29 03:23:50;;;;;;;11.6;9.25;;;;;;;13.82;100;95550.9;;;;
2022/08/29 03:24:51;;;;;;;11.6;9.25;;;;;;;13.82;100;95550.9;;;;
2022/08/29 03:25:52;;;;;;;11.6;9.25;;;;;;;13.82;100;95550.9;;;;
2022/08/29 03:26:54;;;;;;;9.2;8.25;;;;;;;13.77;100;95540.55;;;;
2022/08/29 03:27:55;;;;;;;9.2;8.25;;;;;;;13.77;100;95540.55;;;;
2022/08/29 03:28:56;;;;;;;9.2;8.25;;;;;;;13.77;100;95540.55;;;;
2022/08/29 03:29:56;;;;;;;9.2;8.25;;;;;;;13.77;100;95540.55;;;;
2022/08/29 03:30:57;;;;;;;9.2;8.25;;;;;;;13.77;100;95540.55;;;;
2022/08/29 03:31:58;;;;;;;9.2;8.25;;;;;;;13.77;100;95540.55;;;;
2022/08/29 03:33:00;;;;;;;9.2;8.25;;;;;;;13.77;100;95540.55;;;;
2022/08/29 03:34:00;;;;;;;9.2;8.25;;;;;;;13.77;100;95540.55;;;;
2022/08/29 03:35:01;;;;;;;9.2;8.25;;;;;;;13.77;100;95540.55;;;;
2022/08/29 03:36:02;;;;;;;9.2;8.25;;;;;;;13.77;100;95540.55;;;;
2022/08/29 03:37:03;;;;;;;9.55;7.9;;;;;;;13.78;100;95544.82;;;;
2022/08/29 03:38:04;;;;;;;9.55;7.9;;;;;;;13.78;100;95544.82;;;;
2022/08/29 03:39:05;;;;;;;9.55;7.9;;;;;;;13.78;100;95544.82;;;;
2022/08/29 03:40:06;;;;;;;9.55;7.9;;;;;;;13.78;100;95544.82;;;;
2022/08/29 03:41:09;;;;;;;9.55;7.9;;;;;;;13.78;100;95544.82;;;;
2022/08/29 03:42:10;;;;;;;9.55;7.9;;;;;;;13.78;100;95544.82;;;;
2022/08/29 03:43:11;;;;;;;9.55;7.9;;;;;;;13.78;100;95544.82;;;;
2022/08/29 03:44:11;;;;;;;9.55;7.9;;;;;;;13.78;100;95544.82;;;;
2022/08/29 03:45:12;;;;;;;9.55;7.9;;;;;;;13.78;100;95544.82;;;;
2022/08/29 03:46:16;;;;;;;9.55;7.9;;;;;;;13.78;100;95544.82;;;;
2022/08/29 03:47:17;;;;;;;9.55;7.9;;;;;;;13.78;100;95544.82;;;;
2022/08/29 03:48:17;;;;;;;9.15;8.050001;;;;;;;13.71;100;95545.03;;;;
2022/08/29 03:49:18;;;;;;;9.15;8.050001;;;;;;;13.71;100;95545.03;;;;
2022/08/29 03:50:19;;;;;;;9.15;8.050001;;;;;;;13.71;100;95545.03;;;;
2022/08/29 03:51:21;;;;;;;9.15;8.050001;;;;;;;13.71;100;95545.03;;;;
2022/08/29 03:52:22;;;;;;;9.15;8.050001;;;;;;;13.71;100;95545.03;;;;
2022/08/29 03:53:23;;;;;;;9.15;8.050001;;;;;;;13.71;100;95545.03;;;;
2022/08/29 03:54:23;;;;;;;9.15;8.050001;;;;;;;13.71;100;95545.03;;;;
2022/08/29 03:55:24;;;;;;;9.15;8.050001;;;;;;;13.71;100;95545.03;;;;
2022/08/29 03:56:24;;;;;;;9.15;8.050001;;;;;;;13.71;100;95545.03;;;;
2022/08/29 03:57:26;;;;;;;9.15;8.050001;;;;;;;13.71;100;95545.03;;;;
2022/08/29 03:58:26;;;;;;;8.299999;7.25;;;;;;;13.66;100;95547.45;;;;
2022/08/29 03:59:27;;;;;;;8.299999;7.25;;;;;;;13.66;100;95547.45;;;;
2022/08/29 04:00:28;;;;;;;8.299999;7.25;;;;;;;13.66;100;95547.45;;;;
2022/08/29 04:01:28;;;;;;;8.299999;7.25;;;;;;;13.66;100;95547.45;;;;
2022/08/29 04:02:29;;;;;;;8.299999;7.25;;;;;;;13.66;100;95547.45;;;;
2022/08/29 04:03:29;;;;;;;8.299999;7.25;;;;;;;13.66;100;95547.45;;;;
2022/08/29 04:05:35;;;;;;;8.299999;7.25;;;;;;;13.66;100;95547.45;;;;
2022/08/29 04:06:36;;;;;;;8.299999;7.25;;;;;;;13.66;100;95547.45;;;;
2022/08/29 04:07:36;;;;;;;8.299999;7.25;;;;;;;13.66;100;95547.45;;;;
2022/08/29 04:08:41;;;;;;;8.4;7.35;;;;;;;13.53;100;95553.03;;;;
2022/08/29 04:09:45;;;;;;;8.4;7.35;;;;;;;13.53;100;95553.03;;;;
2022/08/29 04:10:45;;;;;;;8.4;7.35;;;;;;;13.53;100;95553.03;;;;
2022/08/29 04:11:46;;;;;;;8.4;7.35;;;;;;;13.53;100;95553.03;;;;
2022/08/29 04:12:46;;;;;;;8.4;7.35;;;;;;;13.53;100;95553.03;;;;
2022/08/29 04:13:47;;;;;;;8.4;7.35;;;;;;;13.53;100;95553.03;;;;
2022/08/29 04:14:48;;;;;;;8.4;7.35;;;;;;;13.53;100;95553.03;;;;
2022/08/29 04:15:48;;;;;;;8.4;7.35;;;;;;;13.53;100;95553.03;;;;
2022/08/29 04:16:49;;;;;;;8.4;7.35;;;;;;;13.53;100;95553.03;;;;
2022/08/29 04:17:50;;;;;;;8.4;7.35;;;;;;;13.53;100;95553.03;;;;
2022/08/29 04:18:51;;;;;;;8.4;7.35;;;;;;;13.53;100;95553.03;;;;
2022/08/29 04:19:52;;;;;;;7.650001;6.6;;;;;;;13.46;100;95565.98;;;;
2022/08/29 04:20:52;;;;;;;7.650001;6.6;;;;;;;13.46;100;95565.98;;;;
2022/08/29 04:22:00;;;;;;;7.650001;6.6;;;;;;;13.46;100;95565.98;;;;
2022/08/29 04:23:02;;;;;;;7.650001;6.6;;;;;;;13.46;100;95565.98;;;;
2022/08/29 04:24:03;;;;;;;7.650001;6.6;;;;;;;13.46;100;95565.98;;;;
2022/08/29 04:25:04;;;;;;;7.650001;6.6;;;;;;;13.46;100;95565.98;;;;
2022/08/29 04:26:09;;;;;;;7.650001;6.6;;;;;;;13.46;100;95565.98;;;;
2022/08/29 04:27:13;;;;;;;7.650001;6.6;;;;;;;13.46;100;95565.98;;;;
2022/08/29 04:28:13;;;;;;;7.650001;6.6;;;;;;;13.46;100;95565.98;;;;
2022/08/29 04:29:14;;;;;;;7.650001;6.6;;;;;;;13.46;100;95565.98;;;;
2022/08/29 04:30:14;;;;;;;7.650001;6.849999;;;;;;;13.34;100;95561.92;;;;
2022/08/29 04:31:19;;;;;;;7.650001;6.849999;;;;;;;13.34;100;95561.92;;;;
2022/08/29 04:32:19;;;;;;;7.650001;6.849999;;;;;;;13.34;100;95561.92;;;;
2022/08/29 04:33:20;;;;;;;7.650001;6.849999;;;;;;;13.34;100;95561.92;;;;
2022/08/29 04:34:23;;;;;;;7.650001;6.849999;;;;;;;13.34;100;95561.92;;;;
2022/08/29 04:35:23;;;;;;;7.650001;6.849999;;;;;;;13.34;100;95561.92;;;;
2022/08/29 04:36:24;;;;;;;7.650001;6.849999;;;;;;;13.34;100;95561.92;;;;
2022/08/29 04:37:25;;;;;;;7.650001;6.849999;;;;;;;13.34;100;95561.92;;;;
2022/08/29 04:38:26;;;;;;;7.650001;6.849999;;;;;;;13.34;100;95561.92;;;;
2022/08/29 04:39:27;;;;;;;7.650001;6.849999;;;;;;;13.34;100;95561.92;;;;
2022/08/29 04:40:27;;;;;;;7.650001;6.849999;;;;;;;13.34;100;95561.92;;;;
2022/08/29 04:41:28;;;;;;;7.7;6.85;;;;;;;13.32;100;95581.36;;;;
2022/08/29 04:42:29;;;;;;;7.7;6.85;;;;;;;13.32;100;95581.36;;;;
2022/08/29 04:43:30;;;;;;;7.7;6.85;;;;;;;13.32;100;95581.36;;;;
2022/08/29 04:44:31;;;;;;;7.7;6.85;;;;;;;13.32;100;95581.36;;;;
2022/08/29 04:45:32;;;;;;;7.7;6.85;;;;;;;13.32;100;95581.36;;;;
2022/08/29 04:46:33;;;;;;;7.7;6.85;;;;;;;13.32;100;95581.36;;;;
2022/08/29 04:47:34;;;;;;;7.7;6.85;;;;;;;13.32;100;95581.36;;;;
2022/08/29 04:48:35;;;;;;;7.7;6.85;;;;;;;13.32;100;95581.36;;;;
2022/08/29 04:49:36;;;;;;;7.7;6.85;;;;;;;13.32;100;95581.36;;;;
2022/08/29 04:50:36;;;;;;;7.7;6.85;;;;;;;13.32;100;95581.36;;;;
2022/08/29 04:51:37;;;;;;;8.200002;7.400001;;;;;;;13.28;100;95584.97;;;;
2022/08/29 04:52:37;;;;;;;8.200002;7.400001;;;;;;;13.28;100;95584.97;;;;
2022/08/29 04:53:38;;;;;;;8.200002;7.400001;;;;;;;13.28;100;95584.97;;;;
2022/08/29 04:54:39;;;;;;;8.200002;7.400001;;;;;;;13.28;100;95584.97;;;;
2022/08/29 04:55:40;;;;;;;8.200002;7.400001;;;;;;;13.28;100;95584.97;;;;
2022/08/29 04:56:41;;;;;;;8.200002;7.400001;;;;;;;13.28;100;95584.97;;;;
2022/08/29 04:57:42;;;;;;;8.200002;7.400001;;;;;;;13.28;100;95584.97;;;;
2022/08/29 04:58:43;;;;;;;8.200002;7.400001;;;;;;;13.28;100;95584.97;;;;
2022/08/29 04:59:44;;;;;;;8.200002;7.400001;;;;;;;13.28;100;95584.97;;;;
2022/08/29 05:00:45;;;;;;;8.200002;7.400001;;;;;;;13.28;100;95584.97;;;;
2022/08/29 05:01:45;;;;;;;8.200002;7.400001;;;;;;;13.28;100;95584.97;;;;
2022/08/29 05:02:46;;;;;;;9.699999;8.700001;;;;;;;13.42;100;95587.39;;;;
2022/08/29 05:03:47;;;;;;;9.699999;8.700001;;;;;;;13.42;100;95587.39;;;;
2022/08/29 05:04:51;;;;;;;9.699999;8.700001;;;;;;;13.42;100;95587.39;;;;
2022/08/29 05:05:52;;;;;;;9.699999;8.700001;;;;;;;13.42;100;95587.39;;;;
2022/08/29 05:06:55;;;;;;;9.699999;8.700001;;;;;;;13.42;100;95587.39;;;;
2022/08/29 05:07:56;;;;;;;9.699999;8.700001;;;;;;;13.42;100;95587.39;;;;
2022/08/29 05:08:56;;;;;;;9.699999;8.700001;;;;;;;13.42;100;95587.39;;;;
2022/08/29 05:09:57;;;;;;;9.699999;8.700001;;;;;;;13.42;100;95587.39;;;;
2022/08/29 05:11:01;;;;;;;9.699999;8.700001;;;;;;;13.42;100;95587.39;;;;
2022/08/29 05:12:03;;;;;;;9.699999;8.700001;;;;;;;13.42;100;95587.39;;;;
2022/08/29 05:13:04;;;;;;;10.3;8.250001;;;;;;;13.61;100;95600.53;;;;
2022/08/29 05:14:05;;;;;;;10.3;8.250001;;;;;;;13.61;100;95600.53;;;;
2022/08/29 05:15:05;;;;;;;10.3;8.250001;;;;;;;13.61;100;95600.53;;;;
2022/08/29 05:16:07;;;;;;;10.3;8.250001;;;;;;;13.61;100;95600.53;;;;
2022/08/29 05:17:11;;;;;;;10.3;8.250001;;;;;;;13.61;100;95600.53;;;;
2022/08/29 05:18:12;;;;;;;10.3;8.250001;;;;;;;13.61;100;95600.53;;;;
2022/08/29 05:19:12;;;;;;;10.3;8.250001;;;;;;;13.61;100;95600.53;;;;
2022/08/29 05:20:13;;;;;;;10.3;8.250001;;;;;;;13.61;100;95600.53;;;;
2022/08/29 05:21:14;;;;;;;10.3;8.250001;;;;;;;13.61;100;95600.53;;;;
2022/08/29 05:22:22;;;;;;;10.3;8.250001;;;;;;;13.61;100;95600.53;;;;
2022/08/29 05:23:23;;;;;;;8.3;7.4;;;;;;;13.93;100;95599.72;;;;
2022/08/29 05:24:24;;;;;;;8.3;7.4;;;;;;;13.93;100;95599.72;;;;
2022/08/29 05:25:25;;;;;;;8.3;7.4;;;;;;;13.93;100;95599.72;;;;
2022/08/29 05:26:25;;;;;;;8.3;7.4;;;;;;;13.93;100;95599.72;;;;
2022/08/29 05:27:29;;;;;;;8.3;7.4;;;;;;;13.93;100;95599.72;;;;
2022/08/29 05:28:30;;;;;;;8.3;7.4;;;;;;;13.93;100;95599.72;;;;
2022/08/29 05:29:33;;;;;;;8.3;7.4;;;;;;;13.93;100;95599.72;;;;
2022/08/29 05:30:37;;;;;;;8.3;7.4;;;;;;;13.93;100;95599.72;;;;
2022/08/29 05:31:40;;;;;;;8.3;7.4;;;;;;;13.93;100;95599.72;;;;
2022/08/29 05:32:42;;;;;;;8.3;7.4;;;;;;;13.93;100;95599.72;;;;
2022/08/29 05:33:42;;;;;;;8.3;7.4;;;;;;;13.93;100;95599.72;;;;
2022/08/29 05:34:43;;;;;;;8.200001;6.95;;;;;;;14.18;100;95596.8;;;;
2022/08/29 05:35:45;;;;;;;8.200001;6.95;;;;;;;14.18;100;95596.8;;;;
2022/08/29 05:36:46;;;;;;;8.200001;6.95;;;;;;;14.18;100;95596.8;;;;
2022/08/29 05:37:47;;;;;;;8.200001;6.95;;;;;;;14.18;100;95596.8;;;;
2022/08/29 05:38:47;;;;;;;8.200001;6.95;;;;;;;14.18;100;95596.8;;;;
2022/08/29 05:39:48;;;;;;;8.200001;6.95;;;;;;;14.18;100;95596.8;;;;
2022/08/29 05:40:49;;;;;;;8.200001;6.95;;;;;;;14.18;100;95596.8;;;;
2022/08/29 05:41:49;;;;;;;8.200001;6.95;;;;;;;14.18;100;95596.8;;;;
2022/08/29 05:42:53;;;;;;;8.200001;6.95;;;;;;;14.18;100;95596.8;;;;
2022/08/29 05:43:54;;;;;;;8.200001;6.95;;;;;;;14.18;100;95596.8;;;;
2022/08/29 05:44:56;;;;;;;8.150002;7.25;;;;;;;14.58;100;95593.9;;;;
2022/08/29 05:45:57;;;;;;;8.150002;7.25;;;;;;;14.58;100;95593.9;;;;
2022/08/29 05:46:59;;;;;;;8.150002;7.25;;;;;;;14.58;100;95593.9;;;;
2022/08/29 05:48:00;;;;;;;8.150002;7.25;;;;;;;14.58;100;95593.9;;;;
2022/08/29 05:49:03;;;;;;;8.150002;7.25;;;;;;;14.58;100;95593.9;;;;
2022/08/29 05:50:05;;;;;;;8.150002;7.25;;;;;;;14.58;100;95593.9;;;;
2022/08/29 05:51:07;;;;;;;8.150002;7.25;;;;;;;14.58;100;95593.9;;;;
2022/08/29 05:52:14;;;;;;;8.150002;7.25;;;;;;;14.58;100;95593.9;;;;
2022/08/29 05:53:18;;;;;;;8.150002;7.25;;;;;;;14.58;100;95593.9;;;;
2022/08/29 05:54:18;;;;;;;8.150002;7.25;;;;;;;14.58;100;95593.9;;;;
2022/08/29 05:55:19;;;;;;;8.150002;7.25;;;;;;;14.58;100;95593.9;;;;
2022/08/29 05:56:20;;;;;;;7.05;6.450001;;;;;;;14.92;100;95604.8;;;;
2022/08/29 05:57:22;;;;;;;7.05;6.450001;;;;;;;14.92;100;95604.8;;;;
2022/08/29 05:58:23;;;;;;;7.05;6.450001;;;;;;;14.92;100;95604.8;;;;
2022/08/29 05:59:24;;;;;;;7.05;6.450001;;;;;;;14.92;100;95604.8;;;;
2022/08/29 06:00:24;;;;;;;7.05;6.450001;;;;;;;14.92;100;95604.8;;;;
2022/08/29 06:01:25;;;;;;;7.05;6.450001;;;;;;;14.92;100;95604.8;;;;
2022/08/29 06:02:28;;;;;;;7.05;6.450001;;;;;;;14.92;100;95604.8;;;;
2022/08/29 06:03:29;;;;;;;7.05;6.450001;;;;;;;14.92;100;95604.8;;;;
2022/08/29 06:04:29;;;;;;;7.05;6.450001;;;;;;;14.92;100;95604.8;;;;
2022/08/29 06:05:30;;;;;;;7.05;6.450001;;;;;;;14.92;100;95604.8;;;;
2022/08/29 06:06:30;;;;;;;7.649999;5.799999;;;;;;;15.29;100;95607.51;;;;
2022/08/29 06:07:32;;;;;;;7.649999;5.799999;;;;;;;15.29;100;95607.51;;;;
2022/08/29 06:08:32;;;;;;;7.649999;5.799999;;;;;;;15.29;100;95607.51;;;;
2022/08/29 06:09:33;;;;;;;7.649999;5.799999;;;;;;;15.29;100;95607.51;;;;
2022/08/29 06:10:34;;;;;;;7.649999;5.799999;;;;;;;15.29;100;95607.51;;;;